Time;durP1;ratioP1;P1;durP2;ratioP2;P2;SDS_P1;SDS_P2;PMS_P1;PMS_P2;Temp;Humidity;BMP_temperature;BMP_pressure;BME280_temperature;BME280_humidity;BME280_pressure;Samples;Min_cycle;Max_cycle;Signal;HPM_P1;HPM_P2
2022/03/31 00:01:30;;;;;;;1.70;1.40;;;;;;;14.11;56.27;98102.75;6275822;22;20346;-84
2022/03/31 00:03:55;;;;;;;0.10;0.10;;;;;;;14.11;56.48;98094.69;6277196;22;20330;-81
2022/03/31 00:06:21;;;;;;;1.30;1.20;;;;;;;14.09;56.36;98104.97;6277502;22;20003;-80
2022/03/31 00:08:46;;;;;;;0.22;0.22;;;;;;;14.08;56.36;98114.91;6277152;22;20003;-79
2022/03/31 00:11:12;;;;;;;0.20;0.20;;;;;;;14.08;56.06;98108.75;6277161;22;20094;-81
2022/03/31 00:13:38;;;;;;;0.17;0.17;;;;;;;14.06;56.12;98110.97;6277093;22;20056;-81
2022/03/31 00:16:04;;;;;;;0.10;0.10;;;;;;;14.11;56.19;98105.44;6277171;22;20060;-82
2022/03/31 00:18:31;;;;;;;0.20;0.20;;;;;;;14.10;55.96;98109.25;6276896;22;20051;-80
2022/03/31 00:20:56;;;;;;;0.20;0.20;;;;;;;14.18;55.66;98100.31;6277387;22;20007;-79
2022/03/31 00:23:22;;;;;;;0.15;0.15;;;;;;;14.13;55.74;98083.59;6277273;22;20072;-82
2022/03/31 00:25:48;;;;;;;0.13;0.13;;;;;;;14.14;55.95;98085.19;6276548;22;20496;-81
2022/03/31 00:28:14;;;;;;;0.00;0.00;;;;;;;14.12;55.66;98076.66;6277172;22;20004;-85
2022/03/31 00:30:39;;;;;;;0.00;0.00;;;;;;;14.13;55.67;98081.69;6276786;22;20007;-82
2022/03/31 00:33:05;;;;;;;0.10;0.10;;;;;;;14.08;55.83;98082.66;6277003;22;20424;-81
2022/03/31 00:35:30;;;;;;;0.03;0.03;;;;;;;14.09;55.49;98080.78;6277009;22;20003;-81
2022/03/31 00:37:56;;;;;;;0.10;0.10;;;;;;;14.11;55.34;98077.75;6277338;22;20003;-86
2022/03/31 00:40:22;;;;;;;0.60;0.60;;;;;;;14.13;55.12;98086.28;6277127;22;20459;-85
2022/03/31 00:42:56;;;;;;;0.77;0.75;;;;;;;14.11;55.23;98085.81;6276842;22;20007;-84
2022/03/31 00:45:28;;;;;;;0.05;0.05;;;;;;;14.13;55.49;98084.38;6277264;22;20007;-87
2022/03/31 00:47:55;;;;;;;0.32;0.32;;;;;;;14.15;55.61;98082.16;6277098;22;20039;-84
2022/03/31 00:50:22;;;;;;;0.52;0.52;;;;;;;14.14;55.16;98059.06;6277197;22;20014;-82
2022/03/31 00:52:48;;;;;;;0.00;0.00;;;;;;;14.24;55.27;98071.38;6276929;22;20015;-86
2022/03/31 00:55:14;;;;;;;1.35;1.27;;;;;;;14.23;55.16;98077.84;6278304;22;20007;-83
2022/03/31 00:57:42;;;;;;;1.75;1.17;;;;;;;14.23;55.28;98075.16;6278904;22;20069;-79
2022/03/31 01:00:09;;;;;;;3.20;1.20;;;;;;;14.18;55.96;98076.13;6279183;22;20014;-84
2022/03/31 01:02:37;;;;;;;0.75;0.75;;;;;;;14.15;56.37;98082.16;6278885;22;20088;-81
2022/03/31 01:05:03;;;;;;;1.98;1.88;;;;;;;14.13;56.88;98070.16;6279276;22;20003;-81
2022/03/31 01:07:29;;;;;;;0.40;0.40;;;;;;;14.11;57.62;98078.56;6278845;22;20003;-84
2022/03/31 01:09:57;;;;;;;0.65;0.65;;;;;;;14.12;57.68;98085.50;6278582;22;20015;-79
2022/03/31 01:12:23;;;;;;;0.10;0.10;;;;;;;14.14;57.98;98083.28;6279144;22;20007;-81
2022/03/31 01:15:08;;;;;;;0.13;0.13;;;;;;;14.11;58.38;98077.75;6278763;22;20011;-80
2022/03/31 01:17:39;;;;;;;0.13;0.13;;;;;;;14.07;58.68;98064.97;6278755;22;20010;-87
2022/03/31 01:20:07;;;;;;;0.22;0.22;;;;;;;14.06;59.15;98054.53;6278832;22;20007;-82
2022/03/31 01:22:33;;;;;;;0.00;0.00;;;;;;;14.04;59.57;98070.22;6278853;22;20072;-80
2022/03/31 01:25:00;;;;;;;0.28;0.28;;;;;;;14.11;59.67;98067.81;6278346;22;20402;-84
2022/03/31 01:27:26;;;;;;;2.10;1.27;;;;;;;14.09;59.72;98072.72;6278105;22;20056;-83
2022/03/31 01:29:52;;;;;;;0.22;0.22;;;;;;;14.07;59.34;98080.28;6278740;22;20003;-84
2022/03/31 01:32:18;;;;;;;0.05;0.05;;;;;;;14.04;60.05;98067.50;6278483;22;20007;-81
2022/03/31 01:34:44;;;;;;;0.20;0.20;;;;;;;14.03;59.92;98084.75;6278628;22;20022;-79
2022/03/31 01:37:09;;;;;;;3.50;1.73;;;;;;;14.09;60.52;98086.16;6279016;22;20455;-81
2022/03/31 01:39:35;;;;;;;0.35;0.20;;;;;;;14.08;60.74;98077.28;6278586;22;20090;-89
2022/03/31 01:42:01;;;;;;;0.82;0.82;;;;;;;14.07;61.00;98081.09;6278966;22;20035;-87
2022/03/31 01:44:27;;;;;;;0.00;0.00;;;;;;;14.05;61.76;98080.63;6278488;22;20043;-86
2022/03/31 01:46:53;;;;;;;0.55;0.55;;;;;;;14.03;62.17;98082.06;6278260;22;20007;-80
2022/03/31 01:49:19;;;;;;;0.75;0.75;;;;;;;14.00;62.74;98080.00;6306214;22;20010;-83
2022/03/31 01:51:44;;;;;;;1.27;0.77;;;;;;;13.99;63.55;98075.75;6278523;22;20017;-89
2022/03/31 01:54:10;;;;;;;0.10;0.10;;;;;;;14.00;64.71;98061.19;6278539;22;20006;-81
2022/03/31 01:56:35;;;;;;;1.75;0.57;;;;;;;14.03;65.18;98055.97;6278100;22;20413;-82
2022/03/31 01:59:00;;;;;;;0.10;0.10;;;;;;;14.07;65.40;98048.84;6278647;22;20007;-81
2022/03/31 02:01:27;;;;;;;0.73;0.32;;;;;;;14.06;66.02;98041.09;6278101;22;20440;-79
2022/03/31 02:03:52;;;;;;;0.20;0.20;;;;;;;14.03;66.17;98049.81;6278428;22;20003;-79
2022/03/31 02:06:17;;;;;;;0.20;0.20;;;;;;;14.00;66.88;98040.50;6278010;22;20015;-80
2022/03/31 02:08:43;;;;;;;0.20;0.20;;;;;;;14.01;67.53;98034.00;6278390;22;20391;-79
2022/03/31 02:11:09;;;;;;;1.02;0.82;;;;;;;14.01;67.50;98043.97;6278118;22;20359;-81
2022/03/31 02:13:35;;;;;;;0.50;0.50;;;;;;;13.98;67.94;98041.94;6278373;22;20003;-79
2022/03/31 02:16:01;;;;;;;0.20;0.20;;;;;;;13.95;67.79;98021.84;6278513;22;20003;-78
2022/03/31 02:18:26;;;;;;;0.22;0.22;;;;;;;13.92;67.89;98017.91;6278109;22;20003;-78
2022/03/31 02:20:52;;;;;;;2.47;2.28;;;;;;;13.90;68.67;98006.69;6278293;22;20007;-80
2022/03/31 02:23:18;;;;;;;0.20;0.20;;;;;;;13.86;68.59;98002.28;6278304;22;20428;-79
2022/03/31 02:25:43;;;;;;;3.42;1.17;;;;;;;13.87;68.92;98010.03;6277354;22;20454;-78
2022/03/31 02:28:09;;;;;;;0.15;0.15;;;;;;;13.86;68.77;98031.84;6278523;22;20065;-78
2022/03/31 02:30:35;;;;;;;0.50;0.50;;;;;;;13.83;69.28;98035.16;6277542;22;20047;-78
2022/03/31 02:33:02;;;;;;;0.65;0.63;;;;;;;13.84;69.38;98010.69;6278474;22;20494;-84
2022/03/31 02:35:28;;;;;;;0.32;0.32;;;;;;;13.84;69.75;97993.75;6278121;22;20090;-78
2022/03/31 02:37:54;;;;;;;0.22;0.22;;;;;;;13.87;69.37;97999.28;6278212;22;20033;-79
2022/03/31 02:40:19;;;;;;;0.00;0.00;;;;;;;13.87;69.39;98001.19;6277525;22;20003;-79
2022/03/31 02:42:45;;;;;;;0.45;0.45;;;;;;;13.85;69.95;98014.91;6277724;22;20094;-79
2022/03/31 02:45:10;;;;;;;0.90;0.90;;;;;;;13.86;69.92;98018.41;6278143;22;20030;-78
2022/03/31 02:47:36;;;;;;;0.22;0.22;;;;;;;13.83;70.04;98009.09;6304820;22;20004;-78
2022/03/31 02:50:04;;;;;;;0.90;0.57;;;;;;;13.84;70.42;98020.63;6278052;22;20031;-78
2022/03/31 02:55:24;;;;;;;0.10;0.10;;;;;;;13.84;70.33;98018.75;6277627;22;20084;-89
2022/03/31 02:55:24;;;;;;;0.00;0.00;;;;;;;13.86;70.33;98011.13;6305482;22;20060;-89
2022/03/31 02:57:51;;;;;;;2.40;1.88;;;;;;;13.88;70.30;98025.03;6277797;22;20003;-92
2022/03/31 03:00:17;;;;;;;0.30;0.30;;;;;;;13.91;70.52;98007.47;6251927;22;20011;-83
2022/03/31 03:02:43;;;;;;;1.48;1.38;;;;;;;13.88;70.79;97995.47;6277218;22;20460;-83
2022/03/31 03:05:08;;;;;;;1.83;1.48;;;;;;;13.94;70.79;97998.78;6277482;22;19995;-83
2022/03/31 03:07:34;;;;;;;0.75;0.75;;;;;;;13.91;71.18;98010.16;6277792;22;20005;-83
2022/03/31 03:09:59;;;;;;;2.05;0.50;;;;;;;13.90;71.18;98016.66;6277924;22;20014;-85
2022/03/31 03:12:25;;;;;;;0.10;0.10;;;;;;;13.93;71.22;98008.72;6277492;22;20064;-82
2022/03/31 03:14:51;;;;;;;0.10;0.10;;;;;;;13.92;71.51;97999.09;6278053;22;20011;-81
2022/03/31 03:17:17;;;;;;;0.22;0.22;;;;;;;13.89;71.59;97999.75;6277705;22;20030;-79
2022/03/31 03:19:43;;;;;;;4.45;1.77;;;;;;;13.91;71.50;98012.84;6277607;22;20102;-79
2022/03/31 03:22:08;;;;;;;0.22;0.22;;;;;;;13.92;71.50;98023.28;6277706;22;20038;-80
2022/03/31 03:24:34;;;;;;;0.65;0.65;;;;;;;13.91;71.54;98019.03;6277137;22;20012;-81
2022/03/31 03:27:00;;;;;;;0.20;0.20;;;;;;;13.88;71.65;98022.34;6278326;22;20019;-90
2022/03/31 03:29:25;;;;;;;0.17;0.17;;;;;;;13.91;71.54;98020.91;6277787;22;20007;-90
2022/03/31 03:31:52;;;;;;;0.13;0.13;;;;;;;13.98;71.80;98031.19;6277606;22;20054;-89
2022/03/31 03:34:18;;;;;;;0.15;0.15;;;;;;;13.97;71.82;98024.22;6277492;22;20018;-86
2022/03/31 03:36:43;;;;;;;0.20;0.20;;;;;;;14.07;71.30;98026.53;6277323;22;20086;-85
2022/03/31 03:39:11;;;;;;;0.00;0.00;;;;;;;14.00;71.33;98027.06;6277851;22;20077;-87
2022/03/31 03:41:37;;;;;;;0.10;0.10;;;;;;;14.01;71.74;98017.06;6277164;22;20071;-82
2022/03/31 03:44:03;;;;;;;0.10;0.10;;;;;;;14.11;71.39;98011.34;6277167;22;20071;-80
2022/03/31 03:46:29;;;;;;;0.00;0.00;;;;;;;14.01;71.33;98014.38;6277239;22;20348;-75
2022/03/31 03:48:55;;;;;;;0.22;0.22;;;;;;;14.08;71.19;98023.50;6277002;22;20029;-78
2022/03/31 03:51:20;;;;;;;1.50;1.40;;;;;;;14.13;70.61;98030.59;6277256;22;20030;-77
2022/03/31 03:53:46;;;;;;;0.32;0.32;;;;;;;14.12;70.93;98034.41;6277111;22;20077;-77
2022/03/31 03:56:11;;;;;;;0.20;0.20;;;;;;;14.15;70.63;98033.00;6304324;22;20000;-76
2022/03/31 03:58:37;;;;;;;0.47;0.47;;;;;;;14.19;70.88;98023.94;6304373;22;20006;-77
2022/03/31 04:01:02;;;;;;;0.28;0.28;;;;;;;14.20;70.73;98012.06;6277499;22;20011;-85
2022/03/31 04:03:28;;;;;;;0.40;0.40;;;;;;;14.20;70.54;98004.00;6277159;22;20017;-78
2022/03/31 04:05:55;;;;;;;0.00;0.00;;;;;;;14.16;70.86;98004.97;6304823;22;20467;-81
2022/03/31 04:08:21;;;;;;;0.75;0.75;;;;;;;14.21;70.78;98005.59;6277287;22;20376;-82
2022/03/31 04:10:46;;;;;;;0.63;0.63;;;;;;;14.20;70.76;98011.28;6276594;22;20014;-80
2022/03/31 04:13:12;;;;;;;0.30;0.30;;;;;;;14.22;70.80;98012.53;6276960;22;20004;-81
2022/03/31 04:15:37;;;;;;;0.22;0.22;;;;;;;14.22;70.75;98003.66;6277151;22;20014;-79
2022/03/31 04:18:05;;;;;;;0.10;0.10;;;;;;;14.22;70.86;97992.91;6277429;22;20071;-80
2022/03/31 04:20:31;;;;;;;;;;;;;;;14.18;71.21;97998.16;6277685;22;20015;-77
2022/03/31 04:22:56;;;;;;;0.98;0.98;;;;;;;14.18;71.21;97994.69;6277246;22;19907;-78
2022/03/31 04:25:23;;;;;;;1.15;1.08;;;;;;;14.19;71.23;97999.72;6276435;22;20360;-79
2022/03/31 04:27:49;;;;;;;0.20;0.20;;;;;;;14.19;71.45;98007.03;6276737;22;20346;-80
2022/03/31 04:30:18;;;;;;;0.25;0.25;;;;;;;14.20;71.30;97997.84;6304322;22;19999;-80
2022/03/31 04:32:44;;;;;;;0.75;0.75;;;;;;;14.22;71.41;98009.03;6277142;22;20014;-79
2022/03/31 04:35:10;;;;;;;0.73;0.73;;;;;;;14.24;71.08;98002.25;6277222;22;20003;-80
2022/03/31 04:37:37;;;;;;;0.47;0.47;;;;;;;14.24;71.15;98012.22;6276728;22;20003;-79
2022/03/31 04:40:04;;;;;;;0.30;0.30;;;;;;;14.25;70.87;98011.09;6276904;22;19999;-78
2022/03/31 04:42:30;;;;;;;0.63;0.63;;;;;;;14.34;70.91;98006.47;6276829;22;20003;-78
2022/03/31 04:44:55;;;;;;;4.32;2.15;;;;;;;14.33;71.17;97994.13;6304443;22;20006;-78
2022/03/31 04:47:21;;;;;;;4.43;0.93;;;;;;;14.37;70.83;97995.03;6277127;22;20060;-80
2022/03/31 04:49:46;;;;;;;0.40;0.40;;;;;;;14.36;70.89;97993.47;6276720;22;20015;-81
2022/03/31 04:52:12;;;;;;;0.65;0.43;;;;;;;14.41;70.64;98012.13;6277264;22;20029;-81
2022/03/31 04:54:43;;;;;;;0.10;0.10;;;;;;;14.39;70.85;98013.53;6276965;22;20317;-80
2022/03/31 04:57:11;;;;;;;0.20;0.20;;;;;;;14.50;70.53;98000.50;6277096;22;20026;-79
2022/03/31 04:59:36;;;;;;;3.83;1.20;;;;;;;14.55;70.42;97986.88;6276833;22;20011;-79
2022/03/31 05:02:02;;;;;;;0.10;0.10;;;;;;;14.50;70.39;97993.22;6277359;22;20003;-79
2022/03/31 05:04:28;;;;;;;0.25;0.25;;;;;;;14.57;70.10;97993.50;6277171;22;20000;-79
2022/03/31 05:06:54;;;;;;;0.10;0.10;;;;;;;14.64;70.01;98002.94;6277188;22;20359;-81
2022/03/31 05:09:21;;;;;;;0.75;0.73;;;;;;;14.64;70.26;98002.94;6277241;22;20004;-80
2022/03/31 05:11:47;;;;;;;10.80;1.08;;;;;;;14.62;70.36;98005.16;6276840;22;20000;-81
2022/03/31 05:14:12;;;;;;;0.03;0.03;;;;;;;14.64;70.30;98016.38;6277314;22;20014;-80
2022/03/31 05:16:38;;;;;;;0.03;0.03;;;;;;;14.70;70.07;98012.41;6276974;22;19999;-80
2022/03/31 05:19:04;;;;;;;0.10;0.10;;;;;;;14.73;69.95;98017.94;6277201;22;20004;-81
2022/03/31 05:21:29;;;;;;;0.40;0.40;;;;;;;14.75;69.66;98003.38;6304281;22;20078;-80
2022/03/31 05:23:55;;;;;;;0.20;0.20;;;;;;;14.74;69.68;98034.84;6276798;22;20086;-80
2022/03/31 05:26:20;;;;;;;0.40;0.40;;;;;;;14.78;69.09;98006.19;6277257;22;20421;-80
2022/03/31 05:28:46;;;;;;;0.20;0.20;;;;;;;14.84;68.74;98030.97;6277194;22;20378;-80
2022/03/31 05:31:11;;;;;;;1.30;1.30;;;;;;;14.85;68.48;98041.41;6277208;22;20026;-79
2022/03/31 05:33:37;;;;;;;0.10;0.10;;;;;;;14.89;68.55;98030.78;6276911;22;20060;-79
2022/03/31 05:36:02;;;;;;;0.70;0.70;;;;;;;14.92;68.29;98022.06;6277012;22;20015;-79
2022/03/31 05:38:28;;;;;;;0.85;0.85;;;;;;;14.94;68.22;98027.91;6277321;22;20008;-80
2022/03/31 05:40:54;;;;;;;0.00;0.00;;;;;;;14.96;67.76;98041.03;6305419;22;20007;-80
2022/03/31 05:43:21;;;;;;;0.17;0.17;;;;;;;15.00;67.57;98045.44;6279121;22;20060;-79
2022/03/31 05:45:47;;;;;;;0.30;0.30;;;;;;;14.98;67.26;98042.28;6278534;22;20003;-79
2022/03/31 05:48:13;;;;;;;0.00;0.00;;;;;;;14.89;67.51;98034.25;6279030;22;20003;-79
2022/03/31 05:50:39;;;;;;;0.55;0.55;;;;;;;14.95;67.48;98039.44;6305615;22;20007;-79
2022/03/31 05:53:04;;;;;;;0.47;0.47;;;;;;;14.97;67.49;98024.53;6278880;22;20406;-79
2022/03/31 05:55:30;;;;;;;0.30;0.30;;;;;;;15.11;66.91;98031.53;6278851;22;20004;-79
2022/03/31 05:57:56;;;;;;;0.45;0.45;;;;;;;15.14;67.09;98022.81;6278553;22;20010;-79
2022/03/31 06:00:22;;;;;;;0.52;0.52;;;;;;;15.18;67.28;98031.81;6278848;22;20007;-79
2022/03/31 06:02:48;;;;;;;0.90;0.85;;;;;;;15.19;66.80;98026.06;6278506;22;20445;-81
2022/03/31 06:05:14;;;;;;;0.00;0.00;;;;;;;15.20;66.63;98040.34;6278800;22;20011;-79
2022/03/31 06:07:40;;;;;;;0.10;0.10;;;;;;;15.23;66.64;98028.91;6278430;22;20014;-80
2022/03/31 06:10:06;;;;;;;0.30;0.30;;;;;;;15.26;66.65;98019.34;6278775;22;20004;-81
2022/03/31 06:12:32;;;;;;;0.40;0.40;;;;;;;15.25;66.59;98023.97;6278476;22;19999;-78
2022/03/31 06:14:58;;;;;;;0.10;0.10;;;;;;;15.23;66.23;98026.19;6306238;22;20007;-79
2022/03/31 06:17:24;;;;;;;0.52;0.52;;;;;;;15.27;65.94;98042.50;6278683;22;20042;-81
2022/03/31 06:19:50;;;;;;;1.20;0.57;;;;;;;15.29;65.60;98027.56;6277987;22;19999;-80
2022/03/31 06:22:15;;;;;;;0.00;0.00;;;;;;;15.31;65.50;98017.25;6278967;22;20003;-80
2022/03/31 06:24:41;;;;;;;0.50;0.50;;;;;;;15.32;65.44;98026.91;6278182;22;20045;-81
2022/03/31 06:27:08;;;;;;;1.45;1.35;;;;;;;15.32;65.16;98034.22;6278609;22;20007;-80
2022/03/31 06:29:34;;;;;;;0.85;0.75;;;;;;;15.34;64.80;98050.81;6278184;22;20014;-78
2022/03/31 06:32:02;;;;;;;1.33;1.23;;;;;;;15.36;64.76;98049.38;6278641;22;20349;-81
2022/03/31 06:34:27;;;;;;;1.20;0.55;;;;;;;15.43;64.28;98061.50;6278587;22;20010;-80
2022/03/31 06:36:54;;;;;;;0.10;0.10;;;;;;;15.37;64.74;98058.25;6278309;22;20015;-80
2022/03/31 06:39:20;;;;;;;0.05;0.05;;;;;;;15.40;64.34;98046.78;6278503;22;20003;-80
2022/03/31 06:41:46;;;;;;;0.43;0.43;;;;;;;15.45;64.14;98056.56;6278084;22;20099;-80
2022/03/31 06:44:13;;;;;;;0.10;0.10;;;;;;;15.51;64.12;98055.25;6278362;22;20090;-80
2022/03/31 06:46:40;;;;;;;1.00;1.00;;;;;;;15.48;64.11;98048.63;6278086;22;20025;-80
2022/03/31 06:49:05;;;;;;;0.10;0.10;;;;;;;15.51;64.80;98064.13;6278161;22;20010;-81
2022/03/31 06:51:31;;;;;;;0.75;0.55;;;;;;;15.56;64.57;98070.41;6278004;22;20003;-80
2022/03/31 06:53:57;;;;;;;0.45;0.32;;;;;;;15.59;64.63;98048.22;6277779;22;20037;-81
2022/03/31 06:56:27;;;;;;;0.10;0.10;;;;;;;15.59;64.64;98059.00;6278095;22;20017;-80
2022/03/31 06:58:56;;;;;;;0.45;0.45;;;;;;;15.55;64.17;98053.47;6277879;22;20018;-80
2022/03/31 07:01:22;;;;;;;0.47;0.47;;;;;;;15.55;64.17;98066.16;6305630;22;20003;-80
2022/03/31 07:03:48;;;;;;;0.30;0.30;;;;;;;15.58;64.08;98052.78;6277753;22;20007;-80
2022/03/31 07:06:14;;;;;;;0.10;0.10;;;;;;;15.56;64.04;98070.41;6278146;22;20095;-80
2022/03/31 07:08:39;;;;;;;0.80;0.40;;;;;;;15.60;64.09;98082.09;6277818;22;20007;-80
2022/03/31 07:11:05;;;;;;;0.30;0.30;;;;;;;15.62;64.73;98083.34;6278029;22;20014;-80
2022/03/31 07:13:31;;;;;;;1.55;0.73;;;;;;;15.67;64.87;98068.88;6278119;22;20007;-80
2022/03/31 07:15:57;;;;;;;0.10;0.10;;;;;;;15.65;65.51;98082.69;6277784;22;20011;-80
2022/03/31 07:18:23;;;;;;;0.10;0.10;;;;;;;15.64;65.85;98070.31;6278115;22;20450;-80
2022/03/31 07:20:49;;;;;;;0.10;0.10;;;;;;;15.60;65.96;98077.50;6305181;22;20007;-81
2022/03/31 07:23:18;;;;;;;0.20;0.20;;;;;;;15.58;66.00;98084.34;6278058;22;19999;-80
2022/03/31 07:25:43;;;;;;;0.45;0.45;;;;;;;15.61;65.87;98097.16;6277580;22;20019;-81
2022/03/31 07:28:09;;;;;;;1.17;0.30;;;;;;;15.59;66.46;98083.25;6277998;22;20456;-81
2022/03/31 07:30:34;;;;;;;0.40;0.40;;;;;;;15.59;67.34;98091.34;6278093;22;20003;-80
2022/03/31 07:33:03;;;;;;;0.32;0.32;;;;;;;15.61;67.22;98106.03;6277660;22;20007;-80
2022/03/31 07:35:33;;;;;;;0.60;0.60;;;;;;;15.64;67.00;98112.69;6277776;22;20000;-80
2022/03/31 07:37:59;;;;;;;0.10;0.10;;;;;;;15.67;66.80;98114.69;6277368;22;20014;-80
2022/03/31 07:40:26;;;;;;;0.08;0.08;;;;;;;15.72;66.70;98135.25;6277639;22;20007;-80
2022/03/31 07:42:53;;;;;;;0.17;0.17;;;;;;;15.75;66.49;98131.91;6277528;22;20003;-81
2022/03/31 07:45:19;;;;;;;0.47;0.47;;;;;;;15.80;65.71;98147.88;6277714;22;20004;-80
2022/03/31 07:47:45;;;;;;;0.08;0.08;;;;;;;15.95;65.96;98149.97;6277463;22;20035;-80
2022/03/31 07:50:12;;;;;;;0.00;0.00;;;;;;;15.98;65.66;98135.81;6277722;22;20011;-80
2022/03/31 07:52:40;;;;;;;0.50;0.50;;;;;;;16.20;64.61;98124.94;6277501;22;20010;-80
2022/03/31 07:55:07;;;;;;;0.30;0.30;;;;;;;16.33;64.18;98129.22;6277646;22;19999;-80
2022/03/31 07:57:33;;;;;;;0.00;0.00;;;;;;;16.53;63.42;98126.75;6305033;22;20004;-80
2022/03/31 07:59:59;;;;;;;0.63;0.63;;;;;;;16.73;62.45;98117.72;6277215;22;20018;-80
2022/03/31 08:02:26;;;;;;;0.47;0.47;;;;;;;16.98;61.16;98142.03;6277699;22;20004;-79
2022/03/31 08:04:52;;;;;;;0.43;0.43;;;;;;;17.16;59.90;98125.56;6276720;22;20007;-80
2022/03/31 08:07:18;;;;;;;0.10;0.10;;;;;;;17.39;58.70;98133.94;6277596;22;19999;-80
2022/03/31 08:09:43;;;;;;;0.80;0.30;;;;;;;17.60;58.21;98131.03;6304608;22;19999;-80
2022/03/31 08:12:10;;;;;;;0.50;0.50;;;;;;;17.85;56.92;98106.56;6277333;22;20062;-79
2022/03/31 08:14:36;;;;;;;0.00;0.00;;;;;;;18.08;55.69;98112.97;6277639;22;20033;-80
2022/03/31 08:17:02;;;;;;;0.15;0.15;;;;;;;18.26;54.36;98099.13;6277083;22;20433;-80
2022/03/31 08:19:30;;;;;;;0.00;0.00;;;;;;;18.38;53.47;98098.22;6277613;22;20395;-78
2022/03/31 08:21:56;;;;;;;1.83;1.73;;;;;;;18.39;53.04;98081.66;6277086;22;20014;-79
2022/03/31 08:24:22;;;;;;;0.10;0.10;;;;;;;18.41;52.18;98070.47;6276986;22;20414;-80
2022/03/31 08:26:50;;;;;;;0.10;0.10;;;;;;;18.47;51.83;98065.53;6277592;22;20026;-79
2022/03/31 08:29:17;;;;;;;0.57;0.50;;;;;;;18.48;51.25;98075.22;6277611;22;20015;-80
2022/03/31 08:31:42;;;;;;;0.10;0.10;;;;;;;18.50;51.30;98106.22;6276805;22;20064;-80
2022/03/31 08:34:08;;;;;;;0.40;0.40;;;;;;;18.48;51.40;98108.53;6277450;22;20011;-79
2022/03/31 08:36:33;;;;;;;0.03;0.03;;;;;;;18.52;51.36;98101.25;6277329;22;20485;-79
2022/03/31 08:39:00;;;;;;;0.00;0.00;;;;;;;18.59;51.32;98114.19;6277177;22;20015;-79
2022/03/31 08:41:28;;;;;;;5.70;1.35;;;;;;;18.52;51.61;98125.63;6277324;22;20003;-79
2022/03/31 08:43:53;;;;;;;0.10;0.10;;;;;;;18.58;52.38;98125.34;6304464;22;20014;-80
2022/03/31 08:46:21;;;;;;;0.20;0.20;;;;;;;18.54;52.91;98076.53;6304879;22;20560;-80
2022/03/31 08:48:46;;;;;;;0.10;0.10;;;;;;;18.52;52.93;98084.22;6304311;22;20064;-80
2022/03/31 08:51:12;;;;;;;0.80;0.80;;;;;;;18.48;53.02;98089.56;6277298;22;20432;-80
2022/03/31 08:53:38;;;;;;;1.45;0.85;;;;;;;18.43;52.91;98076.31;6304846;22;20443;-79
2022/03/31 08:56:04;;;;;;;0.10;0.10;;;;;;;18.38;53.24;98080.06;6276978;22;20552;-79
2022/03/31 08:58:30;;;;;;;0.03;0.03;;;;;;;18.38;53.76;98079.25;6277118;22;20030;-79
2022/03/31 09:00:56;;;;;;;0.15;0.15;;;;;;;18.30;53.97;98078.31;6276918;22;20445;-79
2022/03/31 09:03:35;;;;;;;0.85;0.85;;;;;;;18.29;54.51;98055.09;6277237;22;20014;-80
2022/03/31 09:06:01;;;;;;;19.13;0.93;;;;;;;18.28;54.68;98067.06;6276995;22;20011;-79
2022/03/31 09:08:27;;;;;;;0.20;0.20;;;;;;;18.23;55.01;98057.28;6277155;22;20007;-80
2022/03/31 09:10:58;;;;;;;0.95;0.95;;;;;;;18.19;55.09;98050.25;6276754;22;20061;-80
2022/03/31 09:13:25;;;;;;;0.55;0.55;;;;;;;18.20;55.02;98059.91;6277152;22;20022;-79
2022/03/31 09:15:56;;;;;;;0.10;0.10;;;;;;;18.16;55.77;98075.28;6277701;22;20003;-80
2022/03/31 09:18:25;;;;;;;0.40;0.40;;;;;;;18.14;55.74;98072.13;6279176;22;20006;-81
2022/03/31 09:21:00;;;;;;;2.25;1.42;;;;;;;18.11;56.51;98059.31;6278831;22;20425;-80
2022/03/31 09:23:28;;;;;;;0.55;0.55;;;;;;;18.08;56.11;98039.94;6279165;22;20053;-80
2022/03/31 09:26:08;;;;;;;1.10;1.10;;;;;;;18.08;56.23;98007.47;6278712;22;20019;-80
2022/03/31 09:28:34;;;;;;;0.75;0.75;;;;;;;18.08;56.12;98009.41;6279116;22;20016;-80
2022/03/31 09:31:00;;;;;;;1.55;1.17;;;;;;;18.16;56.06;98013.03;6278931;22;20026;-79
2022/03/31 09:33:33;;;;;;;0.40;0.40;;;;;;;18.13;56.77;98030.78;6278907;22;20456;-80
2022/03/31 09:36:03;;;;;;;0.82;0.57;;;;;;;18.11;57.05;98000.56;6278751;22;20087;-80
2022/03/31 09:38:35;;;;;;;0.75;0.75;;;;;;;18.11;56.81;98024.91;6306489;22;20003;-80
2022/03/31 09:41:03;;;;;;;1.75;1.65;;;;;;;18.06;56.96;98006.25;6278763;22;20007;-79
2022/03/31 09:43:40;;;;;;;0.30;0.30;;;;;;;18.11;57.11;98013.31;6278865;22;20015;-79
2022/03/31 09:46:17;;;;;;;0.40;0.40;;;;;;;18.15;57.10;98020.38;6278480;22;20496;-79
2022/03/31 09:48:43;;;;;;;0.60;0.60;;;;;;;18.08;57.22;97998.56;6278781;22;20011;-80
2022/03/31 09:51:09;;;;;;;0.55;0.55;;;;;;;18.04;56.76;98019.34;6278583;22;19999;-80
2022/03/31 09:53:35;;;;;;;0.30;0.30;;;;;;;17.97;57.66;98038.09;6278912;22;20061;-80
2022/03/31 09:56:01;;;;;;;4.32;1.20;;;;;;;17.94;57.64;98034.16;6278161;22;20011;-79
2022/03/31 09:58:27;;;;;;;1.15;1.05;;;;;;;17.87;57.66;98028.56;6278701;22;20003;-80
2022/03/31 10:00:53;;;;;;;1.85;1.50;;;;;;;17.91;57.66;98051.09;6278403;22;20007;-80
2022/03/31 10:03:21;;;;;;;4.38;1.65;;;;;;;17.85;57.67;98011.91;6278692;22;20344;-80
2022/03/31 10:05:47;;;;;;;0.80;0.80;;;;;;;17.88;57.92;98043.66;6278474;22;20014;-80
2022/03/31 10:08:13;;;;;;;1.30;1.25;;;;;;;17.92;57.84;98031.78;6278841;22;20003;-80
2022/03/31 10:10:40;;;;;;;0.20;0.20;;;;;;;17.87;58.29;98045.59;6278291;22;20007;-80
2022/03/31 10:13:20;;;;;;;0.95;0.95;;;;;;;18.00;57.96;98043.59;6278420;22;20112;-79
2022/03/31 10:15:47;;;;;;;0.30;0.30;;;;;;;17.98;57.96;98064.81;6278326;22;20003;-80
2022/03/31 10:18:14;;;;;;;1.13;1.05;;;;;;;18.00;57.85;98057.13;6278365;22;20003;-80
2022/03/31 10:20:51;;;;;;;0.33;0.33;;;;;;;18.07;58.06;98057.28;6278600;22;20448;-79
2022/03/31 10:26:02;;;;;;;1.50;1.45;;;;;;;18.04;58.07;98038.28;6305481;22;20357;-79
2022/03/31 10:28:28;;;;;;;2.78;2.33;;;;;;;18.07;57.23;98051.88;6278206;22;20004;-80
2022/03/31 10:30:56;;;;;;;0.08;0.08;;;;;;;18.11;56.88;98070.13;6278401;22;20006;-79
2022/03/31 10:33:29;;;;;;;;;;;;;;;18.16;57.18;98083.41;6278891;22;20409;-79
2022/03/31 10:36:14;;;;;;;1.23;1.23;;;;;;;18.13;57.10;98068.66;6278042;22;19909;-81
2022/03/31 10:39:02;;;;;;;0.47;0.47;;;;;;;18.07;56.89;98084.34;6278444;22;20061;-79
2022/03/31 10:41:33;;;;;;;0.80;0.70;;;;;;;18.08;57.18;98077.03;6278514;22;20007;-81
2022/03/31 10:44:02;;;;;;;15.70;2.40;;;;;;;18.04;57.05;98085.06;6278174;22;20003;-79
2022/03/31 10:46:28;;;;;;;1.60;1.05;;;;;;;18.03;56.73;98083.47;6278412;22;20015;-80
2022/03/31 10:48:55;;;;;;;0.65;0.65;;;;;;;17.94;56.97;98088.25;6278054;22;20364;-79
2022/03/31 10:51:35;;;;;;;2.38;2.22;;;;;;;17.99;56.93;98065.59;6278059;22;20026;-79
2022/03/31 10:54:01;;;;;;;0.10;0.10;;;;;;;17.94;56.79;98034.16;6277665;22;20023;-81
2022/03/31 10:56:29;;;;;;;0.43;0.43;;;;;;;17.93;56.84;98035.28;6278163;22;20026;-81
2022/03/31 10:58:57;;;;;;;0.85;0.85;;;;;;;17.90;57.10;98057.63;6277970;22;20037;-81
2022/03/31 11:01:25;;;;;;;;;;;;;;;17.90;57.12;98058.41;6278395;22;20007;-81
2022/03/31 11:03:51;;;;;;;0.10;0.10;;;;;;;17.88;57.34;98068.00;6277624;22;19985;-80
2022/03/31 11:06:18;;;;;;;0.55;0.55;;;;;;;17.82;57.36;98050.47;6305645;22;20034;-80
2022/03/31 11:08:49;;;;;;;0.30;0.30;;;;;;;17.88;57.43;98068.00;6278242;22;20449;-81
2022/03/31 11:11:29;;;;;;;8.38;1.13;;;;;;;17.85;57.98;98084.94;6278032;22;20036;-81
2022/03/31 11:13:57;;;;;;;0.70;0.70;;;;;;;17.77;58.58;98092.06;6277952;22;20349;-80
2022/03/31 11:16:37;;;;;;;0.47;0.47;;;;;;;17.69;58.73;98099.22;6278175;22;20008;-81
2022/03/31 11:19:04;;;;;;;0.10;0.10;;;;;;;17.69;59.04;98109.25;6277816;22;20347;-80
2022/03/31 11:21:38;;;;;;;0.75;0.75;;;;;;;17.58;59.60;98111.69;6277965;22;20011;-80
2022/03/31 11:24:05;;;;;;;1.48;1.48;;;;;;;17.53;59.80;98101.88;6277631;22;20495;-80
2022/03/31 11:26:40;;;;;;;0.10;0.10;;;;;;;17.45;60.57;98105.53;6277957;22;20056;-81
2022/03/31 11:29:19;;;;;;;0.20;0.20;;;;;;;17.43;60.97;98103.19;6277496;22;20003;-81
2022/03/31 11:31:53;;;;;;;0.15;0.15;;;;;;;17.35;61.43;98074.38;6278017;22;20022;-81
2022/03/31 11:34:28;;;;;;;0.47;0.47;;;;;;;17.30;61.69;98066.53;6277766;22;20007;-80
2022/03/31 11:36:54;;;;;;;0.47;0.47;;;;;;;17.24;61.78;98076.78;6277479;22;20007;-80